sensor_id;sensor_type;location;lat;lon;timestamp;temperature;humidity
64718;DHT22;62506;46.070;14.492;2023-09-30T00:02:22;23.90;64.50
64718;DHT22;62506;46.070;14.492;2023-09-30T00:04:47;23.90;64.60
64718;DHT22;62506;46.070;14.492;2023-09-30T00:07:13;23.90;64.40
64718;DHT22;62506;46.070;14.492;2023-09-30T00:09:38;23.90;64.40
64718;DHT22;62506;46.070;14.492;2023-09-30T00:12:04;23.90;64.30
64718;DHT22;62506;46.070;14.492;2023-09-30T00:14:30;23.90;64.40
64718;DHT22;62506;46.070;14.492;2023-09-30T00:16:56;23.90;64.60
64718;DHT22;62506;46.070;14.492;2023-09-30T00:19:21;23.80;64.60
64718;DHT22;62506;46.070;14.492;2023-09-30T00:21:48;23.80;64.70
64718;DHT22;62506;46.070;14.492;2023-09-30T00:24:13;23.80;64.80
64718;DHT22;62506;46.070;14.492;2023-09-30T00:26:39;23.80;65.00
64718;DHT22;62506;46.070;14.492;2023-09-30T00:29:04;23.80;65.00
64718;DHT22;62506;46.070;14.492;2023-09-30T00:31:30;23.80;65.10
64718;DHT22;62506;46.070;14.492;2023-09-30T00:33:56;23.80;65.20
64718;DHT22;62506;46.070;14.492;2023-09-30T00:36:22;23.80;65.20
64718;DHT22;62506;46.070;14.492;2023-09-30T00:38:47;23.80;65.30
64718;DHT22;62506;46.070;14.492;2023-09-30T00:41:13;23.80;65.30
64718;DHT22;62506;46.070;14.492;2023-09-30T00:43:39;23.70;65.20
64718;DHT22;62506;46.070;14.492;2023-09-30T00:48:33;23.70;65.20
64718;DHT22;62506;46.070;14.492;2023-09-30T00:50:59;23.80;65.30
64718;DHT22;62506;46.070;14.492;2023-09-30T00:53:25;23.70;65.30
64718;DHT22;62506;46.070;14.492;2023-09-30T00:55:51;23.70;65.30
64718;DHT22;62506;46.070;14.492;2023-09-30T00:58:18;23.70;65.30
64718;DHT22;62506;46.070;14.492;2023-09-30T01:00:44;23.80;65.30
64718;DHT22;62506;46.070;14.492;2023-09-30T01:03:10;23.70;65.40
64718;DHT22;62506;46.070;14.492;2023-09-30T01:05:36;23.70;65.30
64718;DHT22;62506;46.070;14.492;2023-09-30T01:08:02;23.70;65.30
64718;DHT22;62506;46.070;14.492;2023-09-30T01:10:28;23.70;65.40
64718;DHT22;62506;46.070;14.492;2023-09-30T01:12:54;23.70;65.30
64718;DHT22;62506;46.070;14.492;2023-09-30T01:15:19;23.70;65.20
64718;DHT22;62506;46.070;14.492;2023-09-30T01:17:45;23.80;65.20
64718;DHT22;62506;46.070;14.492;2023-09-30T01:20:11;23.80;65.10
64718;DHT22;62506;46.070;14.492;2023-09-30T01:22:41;23.80;65.10
64718;DHT22;62506;46.070;14.492;2023-09-30T01:25:07;23.80;65.10
64718;DHT22;62506;46.070;14.492;2023-09-30T01:27:35;23.80;65.10
64718;DHT22;62506;46.070;14.492;2023-09-30T01:30:00;23.80;65.10
64718;DHT22;62506;46.070;14.492;2023-09-30T01:32:26;23.80;65.10
64718;DHT22;62506;46.070;14.492;2023-09-30T01:34:52;23.80;65.00
64718;DHT22;62506;46.070;14.492;2023-09-30T01:37:17;23.80;64.90
64718;DHT22;62506;46.070;14.492;2023-09-30T01:39:43;23.80;65.00
64718;DHT22;62506;46.070;14.492;2023-09-30T01:42:10;23.70;65.10
64718;DHT22;62506;46.070;14.492;2023-09-30T01:44:36;23.70;65.20
64718;DHT22;62506;46.070;14.492;2023-09-30T01:47:01;23.70;65.30
64718;DHT22;62506;46.070;14.492;2023-09-30T01:49:27;23.70;65.20
64718;DHT22;62506;46.070;14.492;2023-09-30T01:51:53;23.70;65.40
64718;DHT22;62506;46.070;14.492;2023-09-30T01:54:18;23.70;65.40
64718;DHT22;62506;46.070;14.492;2023-09-30T01:56:44;23.70;65.30
64718;DHT22;62506;46.070;14.492;2023-09-30T01:59:09;23.70;65.20
64718;DHT22;62506;46.070;14.492;2023-09-30T02:01:35;23.70;65.20
64718;DHT22;62506;46.070;14.492;2023-09-30T02:04:00;23.70;65.20
64718;DHT22;62506;46.070;14.492;2023-09-30T02:06:26;23.70;65.20
64718;DHT22;62506;46.070;14.492;2023-09-30T02:08:52;23.70;65.20
64718;DHT22;62506;46.070;14.492;2023-09-30T02:11:17;23.70;65.10
64718;DHT22;62506;46.070;14.492;2023-09-30T02:13:43;23.70;65.20
64718;DHT22;62506;46.070;14.492;2023-09-30T02:16:13;23.70;65.20
64718;DHT22;62506;46.070;14.492;2023-09-30T02:18:43;23.70;65.30
64718;DHT22;62506;46.070;14.492;2023-09-30T02:21:10;23.70;65.20
64718;DHT22;62506;46.070;14.492;2023-09-30T02:23:35;23.70;65.30
64718;DHT22;62506;46.070;14.492;2023-09-30T02:26:01;23.70;65.20
64718;DHT22;62506;46.070;14.492;2023-09-30T02:28:28;23.70;65.30
64718;DHT22;62506;46.070;14.492;2023-09-30T02:30:54;23.70;65.50
64718;DHT22;62506;46.070;14.492;2023-09-30T02:33:20;23.70;65.20
64718;DHT22;62506;46.070;14.492;2023-09-30T02:35:45;23.70;65.20
64718;DHT22;62506;46.070;14.492;2023-09-30T02:38:12;23.70;65.10
64718;DHT22;62506;46.070;14.492;2023-09-30T02:40:37;23.70;65.00
64718;DHT22;62506;46.070;14.492;2023-09-30T02:43:05;23.70;65.00
64718;DHT22;62506;46.070;14.492;2023-09-30T02:45:31;23.70;64.90
64718;DHT22;62506;46.070;14.492;2023-09-30T02:47:56;23.70;64.80
64718;DHT22;62506;46.070;14.492;2023-09-30T02:50:22;23.70;64.70
64718;DHT22;62506;46.070;14.492;2023-09-30T02:52:47;23.70;65.00
64718;DHT22;62506;46.070;14.492;2023-09-30T02:55:15;23.80;64.90
64718;DHT22;62506;46.070;14.492;2023-09-30T02:57:40;23.70;64.80
64718;DHT22;62506;46.070;14.492;2023-09-30T03:00:06;23.80;64.80
64718;DHT22;62506;46.070;14.492;2023-09-30T03:02:46;23.70;64.70
64718;DHT22;62506;46.070;14.492;2023-09-30T03:05:11;23.70;64.80
64718;DHT22;62506;46.070;14.492;2023-09-30T03:07:38;23.80;64.80
64718;DHT22;62506;46.070;14.492;2023-09-30T03:10:04;23.80;64.80
64718;DHT22;62506;46.070;14.492;2023-09-30T03:12:34;23.80;64.70
64718;DHT22;62506;46.070;14.492;2023-09-30T03:15:00;23.80;64.70
64718;DHT22;62506;46.070;14.492;2023-09-30T03:17:29;23.80;64.70
64718;DHT22;62506;46.070;14.492;2023-09-30T03:19:55;23.80;64.70
64718;DHT22;62506;46.070;14.492;2023-09-30T03:22:22;23.80;64.60
64718;DHT22;62506;46.070;14.492;2023-09-30T03:24:48;23.80;64.70
64718;DHT22;62506;46.070;14.492;2023-09-30T03:27:13;23.80;64.60
64718;DHT22;62506;46.070;14.492;2023-09-30T03:29:40;23.80;64.60
64718;DHT22;62506;46.070;14.492;2023-09-30T03:32:06;23.80;64.70
64718;DHT22;62506;46.070;14.492;2023-09-30T03:34:34;23.80;64.60
64718;DHT22;62506;46.070;14.492;2023-09-30T03:37:03;23.80;64.60
64718;DHT22;62506;46.070;14.492;2023-09-30T03:39:32;23.80;64.60
64718;DHT22;62506;46.070;14.492;2023-09-30T03:41:57;23.80;64.60
64718;DHT22;62506;46.070;14.492;2023-09-30T03:44:24;23.80;64.70
64718;DHT22;62506;46.070;14.492;2023-09-30T03:46:50;23.80;64.70
64718;DHT22;62506;46.070;14.492;2023-09-30T03:49:16;23.80;64.60
64718;DHT22;62506;46.070;14.492;2023-09-30T03:51:42;23.80;64.60
64718;DHT22;62506;46.070;14.492;2023-09-30T03:54:07;23.80;64.60
64718;DHT22;62506;46.070;14.492;2023-09-30T03:56:34;23.80;64.60
64718;DHT22;62506;46.070;14.492;2023-09-30T03:58:59;23.80;64.60
64718;DHT22;62506;46.070;14.492;2023-09-30T04:01:25;23.80;64.60
64718;DHT22;62506;46.070;14.492;2023-09-30T04:03:52;23.80;64.60
64718;DHT22;62506;46.070;14.492;2023-09-30T04:06:20;23.80;64.60
64718;DHT22;62506;46.070;14.492;2023-09-30T04:08:46;23.80;64.60
64718;DHT22;62506;46.070;14.492;2023-09-30T04:11:12;23.80;64.50
64718;DHT22;62506;46.070;14.492;2023-09-30T04:13:44;23.80;64.60
64718;DHT22;62506;46.070;14.492;2023-09-30T04:16:09;23.70;64.70
64718;DHT22;62506;46.070;14.492;2023-09-30T04:18:35;23.70;64.80
64718;DHT22;62506;46.070;14.492;2023-09-30T04:21:03;23.70;65.00
64718;DHT22;62506;46.070;14.492;2023-09-30T04:23:29;23.70;65.00
64718;DHT22;62506;46.070;14.492;2023-09-30T04:25:54;23.70;65.10
64718;DHT22;62506;46.070;14.492;2023-09-30T04:28:20;23.70;65.20
64718;DHT22;62506;46.070;14.492;2023-09-30T04:30:49;23.70;64.80
64718;DHT22;62506;46.070;14.492;2023-09-30T04:33:15;23.70;65.60
64718;DHT22;62506;46.070;14.492;2023-09-30T04:35:43;23.70;64.80
64718;DHT22;62506;46.070;14.492;2023-09-30T04:38:50;23.70;64.30
64718;DHT22;62506;46.070;14.492;2023-09-30T04:41:38;23.70;64.90
64718;DHT22;62506;46.070;14.492;2023-09-30T04:44:45;23.70;65.10
64718;DHT22;62506;46.070;14.492;2023-09-30T04:47:14;23.80;65.30
64718;DHT22;62506;46.070;14.492;2023-09-30T04:49:41;23.70;61.70
64718;DHT22;62506;46.070;14.492;2023-09-30T04:52:09;23.70;62.30
64718;DHT22;62506;46.070;14.492;2023-09-30T04:54:35;23.70;63.70
64718;DHT22;62506;46.070;14.492;2023-09-30T04:57:01;23.70;64.20
64718;DHT22;62506;46.070;14.492;2023-09-30T04:59:28;23.70;64.20
64718;DHT22;62506;46.070;14.492;2023-09-30T05:01:56;23.70;64.20
64718;DHT22;62506;46.070;14.492;2023-09-30T05:04:22;23.80;64.30
64718;DHT22;62506;46.070;14.492;2023-09-30T05:06:50;23.80;63.90
64718;DHT22;62506;46.070;14.492;2023-09-30T05:09:15;23.90;64.00
64718;DHT22;62506;46.070;14.492;2023-09-30T05:11:42;23.90;63.80
64718;DHT22;62506;46.070;14.492;2023-09-30T05:14:08;23.90;63.70
64718;DHT22;62506;46.070;14.492;2023-09-30T05:16:41;23.90;63.60
64718;DHT22;62506;46.070;14.492;2023-09-30T05:19:09;23.90;63.50
64718;DHT22;62506;46.070;14.492;2023-09-30T05:21:34;23.90;63.40
64718;DHT22;62506;46.070;14.492;2023-09-30T05:24:04;23.90;63.30
64718;DHT22;62506;46.070;14.492;2023-09-30T05:26:30;24.00;63.50
64718;DHT22;62506;46.070;14.492;2023-09-30T05:28:57;24.00;63.00
64718;DHT22;62506;46.070;14.492;2023-09-30T05:31:31;24.00;63.00
64718;DHT22;62506;46.070;14.492;2023-09-30T05:33:58;23.90;63.10
64718;DHT22;62506;46.070;14.492;2023-09-30T05:36:24;24.00;63.10
64718;DHT22;62506;46.070;14.492;2023-09-30T05:38:49;23.90;62.90
64718;DHT22;62506;46.070;14.492;2023-09-30T05:41:15;24.00;63.00
64718;DHT22;62506;46.070;14.492;2023-09-30T05:43:40;24.00;63.10
64718;DHT22;62506;46.070;14.492;2023-09-30T05:46:09;24.00;63.00
64718;DHT22;62506;46.070;14.492;2023-09-30T05:48:50;24.00;63.20
64718;DHT22;62506;46.070;14.492;2023-09-30T05:51:16;24.00;63.60
64718;DHT22;62506;46.070;14.492;2023-09-30T05:53:41;24.00;62.80
64718;DHT22;62506;46.070;14.492;2023-09-30T05:56:07;24.00;63.10
64718;DHT22;62506;46.070;14.492;2023-09-30T05:58:33;24.00;63.40
64718;DHT22;62506;46.070;14.492;2023-09-30T06:00:58;23.90;63.30
64718;DHT22;62506;46.070;14.492;2023-09-30T06:03:26;24.00;63.40
64718;DHT22;62506;46.070;14.492;2023-09-30T06:05:54;23.90;63.50
64718;DHT22;62506;46.070;14.492;2023-09-30T06:08:21;23.90;63.60
64718;DHT22;62506;46.070;14.492;2023-09-30T06:10:47;23.90;63.60
64718;DHT22;62506;46.070;14.492;2023-09-30T06:13:12;23.90;63.90
64718;DHT22;62506;46.070;14.492;2023-09-30T06:15:38;23.90;63.80
64718;DHT22;62506;46.070;14.492;2023-09-30T06:18:07;23.90;63.30
64718;DHT22;62506;46.070;14.492;2023-09-30T06:20:32;23.90;63.30
64718;DHT22;62506;46.070;14.492;2023-09-30T06:22:58;24.00;63.40
64718;DHT22;62506;46.070;14.492;2023-09-30T06:25:26;24.10;63.50
64718;DHT22;62506;46.070;14.492;2023-09-30T06:27:52;24.10;63.40
64718;DHT22;62506;46.070;14.492;2023-09-30T06:30:19;24.20;63.00
64718;DHT22;62506;46.070;14.492;2023-09-30T06:32:46;24.20;63.00
64718;DHT22;62506;46.070;14.492;2023-09-30T06:35:12;24.20;62.60
64718;DHT22;62506;46.070;14.492;2023-09-30T06:37:38;24.20;63.20
64718;DHT22;62506;46.070;14.492;2023-09-30T06:40:08;24.20;63.00
64718;DHT22;62506;46.070;14.492;2023-09-30T06:42:36;24.10;63.00
64718;DHT22;62506;46.070;14.492;2023-09-30T06:45:02;24.10;63.10
64718;DHT22;62506;46.070;14.492;2023-09-30T06:47:34;24.10;63.10
64718;DHT22;62506;46.070;14.492;2023-09-30T06:50:00;24.10;63.10
64718;DHT22;62506;46.070;14.492;2023-09-30T06:52:33;24.10;63.60
64718;DHT22;62506;46.070;14.492;2023-09-30T06:54:59;24.10;63.70
64718;DHT22;62506;46.070;14.492;2023-09-30T06:57:24;24.10;63.60
64718;DHT22;62506;46.070;14.492;2023-09-30T06:59:50;24.10;63.90
64718;DHT22;62506;46.070;14.492;2023-09-30T07:02:17;24.10;63.80
64718;DHT22;62506;46.070;14.492;2023-09-30T07:04:43;24.10;63.60
64718;DHT22;62506;46.070;14.492;2023-09-30T07:07:09;24.10;63.70
64718;DHT22;62506;46.070;14.492;2023-09-30T07:09:35;24.20;63.10
64718;DHT22;62506;46.070;14.492;2023-09-30T07:12:01;24.20;63.90
64718;DHT22;62506;46.070;14.492;2023-09-30T07:14:27;24.20;64.10
64718;DHT22;62506;46.070;14.492;2023-09-30T07:16:52;24.20;64.20
64718;DHT22;62506;46.070;14.492;2023-09-30T07:19:18;24.20;63.80
64718;DHT22;62506;46.070;14.492;2023-09-30T07:21:43;24.20;64.10
64718;DHT22;62506;46.070;14.492;2023-09-30T07:24:09;24.20;64.00
64718;DHT22;62506;46.070;14.492;2023-09-30T07:26:35;24.20;63.90
64718;DHT22;62506;46.070;14.492;2023-09-30T07:29:03;24.30;64.00
64718;DHT22;62506;46.070;14.492;2023-09-30T07:31:35;24.30;62.50
64718;DHT22;62506;46.070;14.492;2023-09-30T07:34:04;24.30;63.20
64718;DHT22;62506;46.070;14.492;2023-09-30T07:36:53;24.20;57.80
64718;DHT22;62506;46.070;14.492;2023-09-30T07:40:05;24.00;59.00
64718;DHT22;62506;46.070;14.492;2023-09-30T07:42:33;24.00;61.30
64718;DHT22;62506;46.070;14.492;2023-09-30T07:45:01;24.10;62.10
64718;DHT22;62506;46.070;14.492;2023-09-30T07:47:29;24.10;62.00
64718;DHT22;62506;46.070;14.492;2023-09-30T07:49:55;24.10;62.30
64718;DHT22;62506;46.070;14.492;2023-09-30T07:52:35;24.10;62.40
64718;DHT22;62506;46.070;14.492;2023-09-30T07:55:03;24.10;62.50
64718;DHT22;62506;46.070;14.492;2023-09-30T07:57:30;24.10;62.60
64718;DHT22;62506;46.070;14.492;2023-09-30T08:00:05;24.20;62.60
64718;DHT22;62506;46.070;14.492;2023-09-30T08:02:35;24.20;62.70
64718;DHT22;62506;46.070;14.492;2023-09-30T08:05:03;24.20;62.90
64718;DHT22;62506;46.070;14.492;2023-09-30T08:08:10;24.20;62.80
64718;DHT22;62506;46.070;14.492;2023-09-30T08:11:17;24.20;62.80
64718;DHT22;62506;46.070;14.492;2023-09-30T08:13:47;24.20;62.90
64718;DHT22;62506;46.070;14.492;2023-09-30T08:17:10;24.20;63.00
64718;DHT22;62506;46.070;14.492;2023-09-30T08:20:18;24.20;63.00
64718;DHT22;62506;46.070;14.492;2023-09-30T08:23:06;24.20;63.00
64718;DHT22;62506;46.070;14.492;2023-09-30T08:29:18;24.20;63.10
64718;DHT22;62506;46.070;14.492;2023-09-30T08:32:18;24.20;63.20
64718;DHT22;62506;46.070;14.492;2023-09-30T09:37:44;24.30;63.40
64718;DHT22;62506;46.070;14.492;2023-09-30T09:49:17;24.30;63.50
64718;DHT22;62506;46.070;14.492;2023-09-30T09:51:46;24.30;63.40
64718;DHT22;62506;46.070;14.492;2023-09-30T09:54:12;24.30;63.40
64718;DHT22;62506;46.070;14.492;2023-09-30T09:56:38;24.30;63.50
64718;DHT22;62506;46.070;14.492;2023-09-30T09:59:04;24.30;63.90
64718;DHT22;62506;46.070;14.492;2023-09-30T10:01:30;24.30;63.70
64718;DHT22;62506;46.070;14.492;2023-09-30T10:03:56;24.30;63.70
64718;DHT22;62506;46.070;14.492;2023-09-30T10:06:21;24.30;63.90
64718;DHT22;62506;46.070;14.492;2023-09-30T10:08:48;24.30;63.90
64718;DHT22;62506;46.070;14.492;2023-09-30T10:11:19;24.30;64.00
64718;DHT22;62506;46.070;14.492;2023-09-30T10:19:20;24.40;65.00
64718;DHT22;62506;46.070;14.492;2023-09-30T10:24:32;24.40;65.70
64718;DHT22;62506;46.070;14.492;2023-09-30T10:29:42;24.40;65.80
64718;DHT22;62506;46.070;14.492;2023-09-30T10:32:07;24.40;65.80
64718;DHT22;62506;46.070;14.492;2023-09-30T10:34:33;24.40;65.70
64718;DHT22;62506;46.070;14.492;2023-09-30T10:36:59;24.40;65.80
64718;DHT22;62506;46.070;14.492;2023-09-30T10:39:58;24.40;65.50
64718;DHT22;62506;46.070;14.492;2023-09-30T10:51:39;24.00;58.70
64718;DHT22;62506;46.070;14.492;2023-09-30T10:54:48;24.10;60.30
64718;DHT22;62506;46.070;14.492;2023-09-30T10:58:18;24.10;61.60
64718;DHT22;62506;46.070;14.492;2023-09-30T11:28:46;23.60;56.50
64718;DHT22;62506;46.070;14.492;2023-09-30T11:35:35;23.50;57.30
64718;DHT22;62506;46.070;14.492;2023-09-30T11:47:38;23.30;58.10
64718;DHT22;62506;46.070;14.492;2023-09-30T11:57:39;23.10;58.20
64718;DHT22;62506;46.070;14.492;2023-09-30T12:00:05;22.90;58.30
64718;DHT22;62506;46.070;14.492;2023-09-30T12:02:40;23.00;59.20
64718;DHT22;62506;46.070;14.492;2023-09-30T12:05:10;23.10;59.20
64718;DHT22;62506;46.070;14.492;2023-09-30T12:07:37;23.00;58.80
64718;DHT22;62506;46.070;14.492;2023-09-30T12:10:06;23.00;58.90
64718;DHT22;62506;46.070;14.492;2023-09-30T12:12:34;23.00;59.10
64718;DHT22;62506;46.070;14.492;2023-09-30T12:14:59;22.90;59.10
64718;DHT22;62506;46.070;14.492;2023-09-30T12:17:25;22.90;59.70
64718;DHT22;62506;46.070;14.492;2023-09-30T12:19:51;22.90;60.00
64718;DHT22;62506;46.070;14.492;2023-09-30T12:22:16;23.00;59.60
64718;DHT22;62506;46.070;14.492;2023-09-30T12:24:42;23.00;59.60
64718;DHT22;62506;46.070;14.492;2023-09-30T12:27:08;22.90;59.90
64718;DHT22;62506;46.070;14.492;2023-09-30T12:29:34;22.90;59.80
64718;DHT22;62506;46.070;14.492;2023-09-30T12:32:00;22.90;59.30
64718;DHT22;62506;46.070;14.492;2023-09-30T12:34:26;23.00;59.30
64718;DHT22;62506;46.070;14.492;2023-09-30T12:36:52;23.10;58.90
64718;DHT22;62506;46.070;14.492;2023-09-30T12:39:18;23.20;58.30
64718;DHT22;62506;46.070;14.492;2023-09-30T12:41:49;23.20;58.00
64718;DHT22;62506;46.070;14.492;2023-09-30T12:44:14;23.10;57.80
64718;DHT22;62506;46.070;14.492;2023-09-30T12:46:40;23.20;58.10
64718;DHT22;62506;46.070;14.492;2023-09-30T12:49:06;23.20;58.20
64718;DHT22;62506;46.070;14.492;2023-09-30T12:51:32;23.20;58.20
64718;DHT22;62506;46.070;14.492;2023-09-30T12:53:58;23.20;58.00
64718;DHT22;62506;46.070;14.492;2023-09-30T12:56:23;23.20;57.70
64718;DHT22;62506;46.070;14.492;2023-09-30T12:58:49;23.20;57.90
64718;DHT22;62506;46.070;14.492;2023-09-30T13:01:15;23.20;57.60
64718;DHT22;62506;46.070;14.492;2023-09-30T13:03:43;23.20;57.70
64718;DHT22;62506;46.070;14.492;2023-09-30T13:06:09;23.20;57.80
64718;DHT22;62506;46.070;14.492;2023-09-30T13:08:34;23.20;57.60
64718;DHT22;62506;46.070;14.492;2023-09-30T13:11:01;23.20;57.60
64718;DHT22;62506;46.070;14.492;2023-09-30T13:13:31;23.20;57.70
64718;DHT22;62506;46.070;14.492;2023-09-30T13:16:09;23.20;57.40
64718;DHT22;62506;46.070;14.492;2023-09-30T13:27:44;23.20;57.70
64718;DHT22;62506;46.070;14.492;2023-09-30T13:33:53;23.30;57.60
64718;DHT22;62506;46.070;14.492;2023-09-30T13:40:36;23.30;57.50
64718;DHT22;62506;46.070;14.492;2023-09-30T13:43:05;23.30;57.30
64718;DHT22;62506;46.070;14.492;2023-09-30T16:52:16;24.10;62.20
64718;DHT22;62506;46.070;14.492;2023-09-30T16:54:42;24.10;62.30
64718;DHT22;62506;46.070;14.492;2023-09-30T16:57:07;24.10;62.20
64718;DHT22;62506;46.070;14.492;2023-09-30T16:59:33;24.10;61.80
64718;DHT22;62506;46.070;14.492;2023-09-30T17:01:59;24.20;61.90
64718;DHT22;62506;46.070;14.492;2023-09-30T17:04:28;24.20;61.90
64718;DHT22;62506;46.070;14.492;2023-09-30T17:06:53;24.20;61.70
64718;DHT22;62506;46.070;14.492;2023-09-30T17:09:19;24.20;61.70
64718;DHT22;62506;46.070;14.492;2023-09-30T17:11:44;24.20;62.10
64718;DHT22;62506;46.070;14.492;2023-09-30T17:14:10;24.20;62.20
64718;DHT22;62506;46.070;14.492;2023-09-30T17:16:36;24.30;62.40
64718;DHT22;62506;46.070;14.492;2023-09-30T17:19:02;24.30;63.00
64718;DHT22;62506;46.070;14.492;2023-09-30T17:21:28;24.20;63.00
64718;DHT22;62506;46.070;14.492;2023-09-30T17:23:54;24.20;63.00
64718;DHT22;62506;46.070;14.492;2023-09-30T17:26:20;24.20;63.50
64718;DHT22;62506;46.070;14.492;2023-09-30T17:28:47;24.10;63.80
64718;DHT22;62506;46.070;14.492;2023-09-30T17:31:19;24.10;63.90
64718;DHT22;62506;46.070;14.492;2023-09-30T17:33:45;24.10;63.40
64718;DHT22;62506;46.070;14.492;2023-09-30T17:36:10;24.10;63.60
64718;DHT22;62506;46.070;14.492;2023-09-30T17:38:36;24.10;63.60
64718;DHT22;62506;46.070;14.492;2023-09-30T17:41:03;24.20;63.30
64718;DHT22;62506;46.070;14.492;2023-09-30T17:43:30;24.10;63.70
64718;DHT22;62506;46.070;14.492;2023-09-30T17:45:56;24.10;64.00
64718;DHT22;62506;46.070;14.492;2023-09-30T17:48:21;24.10;64.00
64718;DHT22;62506;46.070;14.492;2023-09-30T17:50:49;24.10;63.90
64718;DHT22;62506;46.070;14.492;2023-09-30T17:53:14;24.10;63.80
64718;DHT22;62506;46.070;14.492;2023-09-30T17:55:50;24.10;63.70
64718;DHT22;62506;46.070;14.492;2023-09-30T17:58:28;24.10;63.60
64718;DHT22;62506;46.070;14.492;2023-09-30T18:01:36;24.10;64.20
64718;DHT22;62506;46.070;14.492;2023-09-30T18:04:10;24.20;63.80
64718;DHT22;62506;46.070;14.492;2023-09-30T18:07:18;24.30;63.60
64718;DHT22;62506;46.070;14.492;2023-09-30T18:10:19;24.30;62.90
64718;DHT22;62506;46.070;14.492;2023-09-30T18:12:46;24.50;63.50
64718;DHT22;62506;46.070;14.492;2023-09-30T18:15:16;24.50;62.70
64718;DHT22;62506;46.070;14.492;2023-09-30T18:18:02;24.60;62.10
64718;DHT22;62506;46.070;14.492;2023-09-30T18:20:48;24.60;62.10
64718;DHT22;62506;46.070;14.492;2023-09-30T18:23:26;24.70;62.20
64718;DHT22;62506;46.070;14.492;2023-09-30T18:26:16;24.70;62.70
64718;DHT22;62506;46.070;14.492;2023-09-30T18:29:08;24.60;62.70
64718;DHT22;62506;46.070;14.492;2023-09-30T18:32:16;24.50;62.80
64718;DHT22;62506;46.070;14.492;2023-09-30T18:35:17;24.50;63.20
64718;DHT22;62506;46.070;14.492;2023-09-30T18:38:29;24.40;63.20
64718;DHT22;62506;46.070;14.492;2023-09-30T18:41:33;24.40;63.60
64718;DHT22;62506;46.070;14.492;2023-09-30T18:44:38;24.40;63.60
64718;DHT22;62506;46.070;14.492;2023-09-30T18:51:09;24.40;63.80
64718;DHT22;62506;46.070;14.492;2023-09-30T18:54:27;24.40;63.80
64718;DHT22;62506;46.070;14.492;2023-09-30T18:57:05;24.40;63.90
64718;DHT22;62506;46.070;14.492;2023-09-30T18:59:57;24.40;63.90
64718;DHT22;62506;46.070;14.492;2023-09-30T19:06:08;24.50;63.70
64718;DHT22;62506;46.070;14.492;2023-09-30T19:08:57;24.50;63.70
64718;DHT22;62506;46.070;14.492;2023-09-30T19:12:03;24.40;63.70
64718;DHT22;62506;46.070;14.492;2023-09-30T19:15:00;24.40;63.70
64718;DHT22;62506;46.070;14.492;2023-09-30T19:18:11;24.50;63.80
64718;DHT22;62506;46.070;14.492;2023-09-30T19:21:44;24.50;63.70
64718;DHT22;62506;46.070;14.492;2023-09-30T19:24:34;24.50;63.70
64718;DHT22;62506;46.070;14.492;2023-09-30T19:27:36;24.50;63.90
64718;DHT22;62506;46.070;14.492;2023-09-30T19:30:11;24.50;63.70
64718;DHT22;62506;46.070;14.492;2023-09-30T19:32:42;24.50;63.70
64718;DHT22;62506;46.070;14.492;2023-09-30T19:35:17;24.50;63.80
64718;DHT22;62506;46.070;14.492;2023-09-30T19:38:03;24.50;63.70
64718;DHT22;62506;46.070;14.492;2023-09-30T19:41:17;24.50;63.70
64718;DHT22;62506;46.070;14.492;2023-09-30T19:43:44;24.50;63.90
64718;DHT22;62506;46.070;14.492;2023-09-30T19:46:11;24.60;63.40
64718;DHT22;62506;46.070;14.492;2023-09-30T19:48:38;24.50;63.60
64718;DHT22;62506;46.070;14.492;2023-09-30T19:51:24;24.50;63.60
64718;DHT22;62506;46.070;14.492;2023-09-30T19:53:55;24.60;64.10
64718;DHT22;62506;46.070;14.492;2023-09-30T19:56:22;24.60;64.00
64718;DHT22;62506;46.070;14.492;2023-09-30T19:59:14;24.60;64.00
64718;DHT22;62506;46.070;14.492;2023-09-30T20:02:14;24.60;64.30
64718;DHT22;62506;46.070;14.492;2023-09-30T20:05:02;24.50;64.30
64718;DHT22;62506;46.070;14.492;2023-09-30T20:14:08;24.60;64.30
64718;DHT22;62506;46.070;14.492;2023-09-30T20:16:56;24.60;64.20
64718;DHT22;62506;46.070;14.492;2023-09-30T20:19:24;24.60;63.60
64718;DHT22;62506;46.070;14.492;2023-09-30T20:21:49;24.60;62.90
64718;DHT22;62506;46.070;14.492;2023-09-30T20:24:15;24.50;63.00
64718;DHT22;62506;46.070;14.492;2023-09-30T20:26:40;24.40;63.00
64718;DHT22;62506;46.070;14.492;2023-09-30T20:29:06;24.40;63.50
64718;DHT22;62506;46.070;14.492;2023-09-30T20:31:32;24.40;63.50
64718;DHT22;62506;46.070;14.492;2023-09-30T20:34:00;24.30;63.50
64718;DHT22;62506;46.070;14.492;2023-09-30T20:36:26;24.40;63.80
64718;DHT22;62506;46.070;14.492;2023-09-30T20:38:52;24.30;63.70
64718;DHT22;62506;46.070;14.492;2023-09-30T20:41:17;24.30;63.80
64718;DHT22;62506;46.070;14.492;2023-09-30T20:43:43;24.30;63.90
64718;DHT22;62506;46.070;14.492;2023-09-30T20:46:09;24.30;64.00
64718;DHT22;62506;46.070;14.492;2023-09-30T20:48:35;24.30;64.10
64718;DHT22;62506;46.070;14.492;2023-09-30T20:51:04;24.20;64.10
64718;DHT22;62506;46.070;14.492;2023-09-30T20:53:33;24.20;64.30
64718;DHT22;62506;46.070;14.492;2023-09-30T20:55:59;24.20;64.30
64718;DHT22;62506;46.070;14.492;2023-09-30T20:58:25;24.10;64.40
64718;DHT22;62506;46.070;14.492;2023-09-30T21:00:51;24.20;64.50
64718;DHT22;62506;46.070;14.492;2023-09-30T21:03:16;24.20;64.60
64718;DHT22;62506;46.070;14.492;2023-09-30T21:05:42;24.10;64.70
64718;DHT22;62506;46.070;14.492;2023-09-30T21:08:08;24.10;64.70
64718;DHT22;62506;46.070;14.492;2023-09-30T21:10:34;24.10;64.70
64718;DHT22;62506;46.070;14.492;2023-09-30T21:12:59;24.10;64.80
64718;DHT22;62506;46.070;14.492;2023-09-30T21:15:25;24.00;64.90
64718;DHT22;62506;46.070;14.492;2023-09-30T21:17:51;24.10;64.90
64718;DHT22;62506;46.070;14.492;2023-09-30T21:20:16;24.00;64.90
64718;DHT22;62506;46.070;14.492;2023-09-30T21:22:42;24.00;65.00
64718;DHT22;62506;46.070;14.492;2023-09-30T21:25:09;24.00;65.00
64718;DHT22;62506;46.070;14.492;2023-09-30T21:27:35;24.00;65.00
64718;DHT22;62506;46.070;14.492;2023-09-30T21:30:01;24.00;65.10
64718;DHT22;62506;46.070;14.492;2023-09-30T21:32:26;24.00;65.10
64718;DHT22;62506;46.070;14.492;2023-09-30T21:34:52;24.00;65.10
64718;DHT22;62506;46.070;14.492;2023-09-30T21:37:17;24.00;65.10
64718;DHT22;62506;46.070;14.492;2023-09-30T21:39:43;24.00;65.10
64718;DHT22;62506;46.070;14.492;2023-09-30T21:42:08;24.00;65.00
64718;DHT22;62506;46.070;14.492;2023-09-30T21:44:34;24.00;64.90